Cerro, NM (87519)

8:15 AM MDT on August 29, 2014 (GMT -0600)
Upper Red River Valley | Change Station
CLOSE
Current Station
Personal Weather Station
Location: Red River, NM
Elevation: 9209 ft
Nearby Weather Stations

Elev 9209 ft 36.64 °N, 105.38 °W | Updated 2 minutes ago

Clear
Clear
37.7 °F
Feels Like 38 °F
N
0.0
Wind Variable Wind from SE
Gusts 2.0 mph

Today
High -- | Low -- °F
--% Chance of Precip.
Yesterday
High -- | Low -- °F
Precip. -- in
6:30 AM 7:34 PM
Waxing Crescent, 14% visible
Pressure 30.37 in
Visibility 10.0 miles
Clouds Clear
Windchill 38 °F
Dew Point 36 °F
Humidity 92%
Rainfall 0.00 in
Snow Depth Not available.
UV 1 out of 12
Pollen 10.10 out of 12
Air Quality Not available.
Flu Activity Not available.
METAR KAXX 291355Z AUTO 00000KT 10SM CLR 05/03 A3037 RMK AO2 T00480033

More Conditions Fewer Conditions

Pressure 30.37 in
Visibility 10.0 miles
Clouds Clear
Windchill 38 °F
Dew Point 36 °F
Humidity 92%
Rainfall 0.00 in
Snow Depth Not available.
UV 1 out of 12
Pollen 10.10 out of 12
Air Quality Not available.
Flu Activity Not available.
METAR KAXX 291355Z AUTO 00000KT 10SM CLR 05/03 A3037 RMK AO2 T00480033

More Conditions Fewer Conditions

10-Day Weather Forecast

Almanac

Astronomy

Aug. 29, 2014 Rise Set
Actual Time 6:30 AM MDT 7:34 PM MDT
Civil Twilight 6:03 AM MDT 8:00 PM MDT
Nautical Twilight 5:32 AM MDT 8:32 PM MDT
Astronomical Twilight 4:59 AM MDT 9:05 PM MDT
Moon 10:15 AM MDT 9:41 PM MDT
Length of Visible Light 13h 56m
Length of Day
13h 03m
Tomorrow will be 2m 14s shorter.
Waxing Crescent, 14% of the Moon is Illuminated
Today
Waxing Crescent
Sep 2
First Quarter
Sep 8
Full
Sep 15
Last Quarter
Sep 24
New

Today's Extremes

State Highs State Lows

Community

WunderPhotos

Upload Photos

1,748,240 photos uploaded!

Nearby

Snow Depth

Station Depth Elevation
Red River Pass #2 0 in 9850 ft
North Costilla 1 in 10600 ft
Tolby 1 in 10180 ft
Gallegos Peak 1 in 9800 ft
Hopewell 0 in 10000 ft

Earthquake Activity

City Distance Mag. Time & Date
No recent earthquake activity has been reported nearby.
Minimum magnitude displayed is 2.5.

Coastal Water Temperatures

Place Temperature
No Stations Reporting

Nearby Weather Stations